sensor_id;sensor_type;location;lat;lon;timestamp;P1;durP1;ratioP1;P2;durP2;ratioP2
32172;SDS011;18679;45.190;5.722;2023-09-19T00:01:59;1.88;;;1.23;;
32172;SDS011;18679;45.190;5.722;2023-09-19T00:05:00;5.57;;;1.75;;
32172;SDS011;18679;45.190;5.722;2023-09-19T00:08:05;2.28;;;1.08;;
32172;SDS011;18679;45.190;5.722;2023-09-19T00:11:06;3.22;;;1.25;;
32172;SDS011;18679;45.190;5.722;2023-09-19T00:14:08;4.65;;;1.80;;
32172;SDS011;18679;45.190;5.722;2023-09-19T00:17:12;2.35;;;1.30;;
32172;SDS011;18679;45.190;5.722;2023-09-19T00:20:13;5.15;;;1.40;;
32172;SDS011;18679;45.190;5.722;2023-09-19T00:23:17;2.25;;;1.15;;
32172;SDS011;18679;45.190;5.722;2023-09-19T00:26:19;6.32;;;1.58;;
32172;SDS011;18679;45.190;5.722;2023-09-19T00:29:22;1.95;;;1.40;;
32172;SDS011;18679;45.190;5.722;2023-09-19T00:32:24;3.15;;;1.48;;
32172;SDS011;18679;45.190;5.722;2023-09-19T00:35:25;2.03;;;1.33;;
32172;SDS011;18679;45.190;5.722;2023-09-19T00:38:27;3.55;;;1.52;;
32172;SDS011;18679;45.190;5.722;2023-09-19T00:41:28;5.72;;;1.75;;
32172;SDS011;18679;45.190;5.722;2023-09-19T00:44:30;2.47;;;1.63;;
32172;SDS011;18679;45.190;5.722;2023-09-19T00:47:31;4.10;;;1.30;;
32172;SDS011;18679;45.190;5.722;2023-09-19T00:50:32;9.63;;;1.70;;
32172;SDS011;18679;45.190;5.722;2023-09-19T00:53:33;3.63;;;2.10;;
32172;SDS011;18679;45.190;5.722;2023-09-19T00:56:34;7.97;;;2.20;;
32172;SDS011;18679;45.190;5.722;2023-09-19T00:59:38;3.45;;;2.00;;
32172;SDS011;18679;45.190;5.722;2023-09-19T01:02:39;4.20;;;2.40;;
32172;SDS011;18679;45.190;5.722;2023-09-19T01:05:40;5.63;;;2.38;;
32172;SDS011;18679;45.190;5.722;2023-09-19T01:08:41;6.75;;;2.45;;
32172;SDS011;18679;45.190;5.722;2023-09-19T01:11:42;12.95;;;2.53;;
32172;SDS011;18679;45.190;5.722;2023-09-19T01:18:02;5.85;;;2.70;;
32172;SDS011;18679;45.190;5.722;2023-09-19T01:21:29;8.43;;;3.53;;
32172;SDS011;18679;45.190;5.722;2023-09-19T01:24:47;8.48;;;3.60;;
32172;SDS011;18679;45.190;5.722;2023-09-19T01:28:16;6.90;;;3.70;;
32172;SDS011;18679;45.190;5.722;2023-09-19T01:31:31;8.00;;;3.63;;
32172;SDS011;18679;45.190;5.722;2023-09-19T01:37:59;7.93;;;3.22;;
32172;SDS011;18679;45.190;5.722;2023-09-19T01:41:03;7.38;;;3.92;;
32172;SDS011;18679;45.190;5.722;2023-09-19T01:44:15;8.43;;;4.05;;
32172;SDS011;18679;45.190;5.722;2023-09-19T01:47:25;10.10;;;4.05;;
32172;SDS011;18679;45.190;5.722;2023-09-19T01:53:41;6.93;;;3.42;;
32172;SDS011;18679;45.190;5.722;2023-09-19T01:57:03;8.02;;;3.53;;
32172;SDS011;18679;45.190;5.722;2023-09-19T02:00:26;10.20;;;3.53;;
32172;SDS011;18679;45.190;5.722;2023-09-19T02:03:29;13.65;;;3.70;;
32172;SDS011;18679;45.190;5.722;2023-09-19T02:06:32;5.80;;;3.33;;
32172;SDS011;18679;45.190;5.722;2023-09-19T02:09:34;7.80;;;3.40;;
32172;SDS011;18679;45.190;5.722;2023-09-19T02:12:35;7.82;;;3.40;;
32172;SDS011;18679;45.190;5.722;2023-09-19T02:15:37;9.13;;;3.92;;
32172;SDS011;18679;45.190;5.722;2023-09-19T02:18:38;6.13;;;3.45;;
32172;SDS011;18679;45.190;5.722;2023-09-19T02:21:39;7.78;;;3.58;;
32172;SDS011;18679;45.190;5.722;2023-09-19T02:24:40;5.80;;;3.83;;
32172;SDS011;18679;45.190;5.722;2023-09-19T02:27:42;11.55;;;3.47;;
32172;SDS011;18679;45.190;5.722;2023-09-19T02:30:43;5.47;;;2.80;;
32172;SDS011;18679;45.190;5.722;2023-09-19T02:33:48;5.40;;;3.13;;
32172;SDS011;18679;45.190;5.722;2023-09-19T02:36:48;8.43;;;3.38;;
32172;SDS011;18679;45.190;5.722;2023-09-19T02:39:50;5.82;;;3.22;;
32172;SDS011;18679;45.190;5.722;2023-09-19T02:42:55;10.35;;;3.17;;
32172;SDS011;18679;45.190;5.722;2023-09-19T02:45:57;5.35;;;3.30;;
32172;SDS011;18679;45.190;5.722;2023-09-19T02:48:58;4.63;;;2.90;;
32172;SDS011;18679;45.190;5.722;2023-09-19T02:51:59;8.82;;;3.13;;
32172;SDS011;18679;45.190;5.722;2023-09-19T02:55:00;8.63;;;3.45;;
32172;SDS011;18679;45.190;5.722;2023-09-19T02:58:01;4.40;;;3.00;;
32172;SDS011;18679;45.190;5.722;2023-09-19T03:01:12;4.07;;;2.60;;
32172;SDS011;18679;45.190;5.722;2023-09-19T03:04:13;4.85;;;2.70;;
32172;SDS011;18679;45.190;5.722;2023-09-19T03:07:21;6.88;;;3.10;;
32172;SDS011;18679;45.190;5.722;2023-09-19T03:10:23;4.47;;;2.78;;
32172;SDS011;18679;45.190;5.722;2023-09-19T03:13:25;4.63;;;3.00;;
32172;SDS011;18679;45.190;5.722;2023-09-19T03:16:27;3.92;;;1.95;;
32172;SDS011;18679;45.190;5.722;2023-09-19T03:19:31;5.30;;;2.67;;
32172;SDS011;18679;45.190;5.722;2023-09-19T03:22:35;7.55;;;2.30;;
32172;SDS011;18679;45.190;5.722;2023-09-19T03:25:36;8.02;;;2.40;;
32172;SDS011;18679;45.190;5.722;2023-09-19T03:28:37;4.32;;;2.28;;
32172;SDS011;18679;45.190;5.722;2023-09-19T03:31:38;7.53;;;2.42;;
32172;SDS011;18679;45.190;5.722;2023-09-19T03:34:41;5.25;;;2.45;;
32172;SDS011;18679;45.190;5.722;2023-09-19T03:37:44;6.90;;;2.88;;
32172;SDS011;18679;45.190;5.722;2023-09-19T03:40:45;4.57;;;2.58;;
32172;SDS011;18679;45.190;5.722;2023-09-19T03:43:47;7.95;;;1.98;;
32172;SDS011;18679;45.190;5.722;2023-09-19T03:46:47;8.25;;;2.25;;
32172;SDS011;18679;45.190;5.722;2023-09-19T03:49:48;8.40;;;2.78;;
32172;SDS011;18679;45.190;5.722;2023-09-19T03:52:49;5.70;;;2.30;;
32172;SDS011;18679;45.190;5.722;2023-09-19T03:55:51;5.80;;;2.55;;
32172;SDS011;18679;45.190;5.722;2023-09-19T03:58:52;4.55;;;2.83;;
32172;SDS011;18679;45.190;5.722;2023-09-19T04:01:53;7.72;;;2.90;;
32172;SDS011;18679;45.190;5.722;2023-09-19T04:04:57;9.43;;;3.50;;
32172;SDS011;18679;45.190;5.722;2023-09-19T04:07:57;8.32;;;3.30;;
32172;SDS011;18679;45.190;5.722;2023-09-19T04:10:58;11.88;;;3.30;;
32172;SDS011;18679;45.190;5.722;2023-09-19T04:14:02;6.65;;;3.53;;
32172;SDS011;18679;45.190;5.722;2023-09-19T04:17:04;6.63;;;3.78;;
32172;SDS011;18679;45.190;5.722;2023-09-19T04:20:06;7.70;;;3.35;;
32172;SDS011;18679;45.190;5.722;2023-09-19T04:23:07;6.90;;;2.70;;
32172;SDS011;18679;45.190;5.722;2023-09-19T04:26:08;6.65;;;3.22;;
32172;SDS011;18679;45.190;5.722;2023-09-19T04:29:09;9.05;;;3.10;;
32172;SDS011;18679;45.190;5.722;2023-09-19T04:32:11;5.15;;;3.08;;
32172;SDS011;18679;45.190;5.722;2023-09-19T04:35:13;4.35;;;3.15;;
32172;SDS011;18679;45.190;5.722;2023-09-19T04:38:15;5.50;;;2.70;;
32172;SDS011;18679;45.190;5.722;2023-09-19T04:41:15;6.82;;;3.33;;
32172;SDS011;18679;45.190;5.722;2023-09-19T04:44:17;8.18;;;3.30;;
32172;SDS011;18679;45.190;5.722;2023-09-19T04:47:18;5.50;;;3.47;;
32172;SDS011;18679;45.190;5.722;2023-09-19T04:50:19;14.05;;;3.75;;
32172;SDS011;18679;45.190;5.722;2023-09-19T04:53:21;7.70;;;3.45;;
32172;SDS011;18679;45.190;5.722;2023-09-19T04:56:22;10.27;;;3.45;;
32172;SDS011;18679;45.190;5.722;2023-09-19T04:59:24;11.27;;;4.22;;
32172;SDS011;18679;45.190;5.722;2023-09-19T05:02:25;6.78;;;3.75;;
32172;SDS011;18679;45.190;5.722;2023-09-19T05:05:30;8.82;;;4.07;;
32172;SDS011;18679;45.190;5.722;2023-09-19T05:08:31;7.13;;;3.15;;
32172;SDS011;18679;45.190;5.722;2023-09-19T05:11:33;9.73;;;3.03;;
32172;SDS011;18679;45.190;5.722;2023-09-19T05:14:34;7.50;;;3.25;;
32172;SDS011;18679;45.190;5.722;2023-09-19T05:17:35;4.35;;;2.58;;
32172;SDS011;18679;45.190;5.722;2023-09-19T05:20:36;5.97;;;2.90;;
32172;SDS011;18679;45.190;5.722;2023-09-19T05:23:39;4.03;;;2.53;;
32172;SDS011;18679;45.190;5.722;2023-09-19T05:26:40;6.50;;;2.17;;
32172;SDS011;18679;45.190;5.722;2023-09-19T05:29:41;11.82;;;2.80;;
32172;SDS011;18679;45.190;5.722;2023-09-19T05:32:42;4.53;;;2.67;;
32172;SDS011;18679;45.190;5.722;2023-09-19T05:35:44;5.13;;;3.00;;
32172;SDS011;18679;45.190;5.722;2023-09-19T05:38:47;10.88;;;2.67;;
32172;SDS011;18679;45.190;5.722;2023-09-19T05:41:50;5.18;;;2.38;;
32172;SDS011;18679;45.190;5.722;2023-09-19T05:44:50;6.00;;;3.17;;
32172;SDS011;18679;45.190;5.722;2023-09-19T05:47:51;14.68;;;4.10;;
32172;SDS011;18679;45.190;5.722;2023-09-19T05:50:56;5.38;;;2.78;;
32172;SDS011;18679;45.190;5.722;2023-09-19T05:53:56;6.85;;;3.05;;
32172;SDS011;18679;45.190;5.722;2023-09-19T05:56:57;7.20;;;3.75;;
32172;SDS011;18679;45.190;5.722;2023-09-19T05:59:58;9.82;;;3.20;;
32172;SDS011;18679;45.190;5.722;2023-09-19T06:02:59;7.30;;;3.00;;
32172;SDS011;18679;45.190;5.722;2023-09-19T06:06:01;11.68;;;3.00;;
32172;SDS011;18679;45.190;5.722;2023-09-19T06:09:02;10.65;;;3.67;;
32172;SDS011;18679;45.190;5.722;2023-09-19T06:12:05;4.28;;;2.53;;
32172;SDS011;18679;45.190;5.722;2023-09-19T06:15:06;6.65;;;2.95;;
32172;SDS011;18679;45.190;5.722;2023-09-19T06:18:13;9.95;;;2.95;;
32172;SDS011;18679;45.190;5.722;2023-09-19T06:21:19;11.82;;;3.20;;
32172;SDS011;18679;45.190;5.722;2023-09-19T06:24:20;8.80;;;2.75;;
32172;SDS011;18679;45.190;5.722;2023-09-19T06:27:21;9.30;;;3.08;;
32172;SDS011;18679;45.190;5.722;2023-09-19T06:30:22;11.55;;;3.15;;
32172;SDS011;18679;45.190;5.722;2023-09-19T06:33:24;6.32;;;3.05;;
32172;SDS011;18679;45.190;5.722;2023-09-19T06:36:25;3.95;;;2.15;;
32172;SDS011;18679;45.190;5.722;2023-09-19T06:39:25;5.75;;;2.58;;
32172;SDS011;18679;45.190;5.722;2023-09-19T06:42:26;6.53;;;2.47;;
32172;SDS011;18679;45.190;5.722;2023-09-19T06:45:28;6.13;;;2.50;;
32172;SDS011;18679;45.190;5.722;2023-09-19T06:48:29;8.55;;;2.05;;
32172;SDS011;18679;45.190;5.722;2023-09-19T06:51:30;13.02;;;2.67;;
32172;SDS011;18679;45.190;5.722;2023-09-19T06:54:31;5.35;;;2.78;;
32172;SDS011;18679;45.190;5.722;2023-09-19T06:57:34;5.47;;;2.53;;
32172;SDS011;18679;45.190;5.722;2023-09-19T07:00:35;9.73;;;4.85;;
32172;SDS011;18679;45.190;5.722;2023-09-19T07:03:37;6.38;;;3.95;;
32172;SDS011;18679;45.190;5.722;2023-09-19T07:06:38;4.95;;;2.60;;
32172;SDS011;18679;45.190;5.722;2023-09-19T07:09:40;8.55;;;2.80;;
32172;SDS011;18679;45.190;5.722;2023-09-19T07:12:42;7.63;;;2.72;;
32172;SDS011;18679;45.190;5.722;2023-09-19T07:15:43;4.78;;;2.83;;
32172;SDS011;18679;45.190;5.722;2023-09-19T07:18:50;4.35;;;2.42;;
32172;SDS011;18679;45.190;5.722;2023-09-19T07:21:50;6.93;;;2.60;;
32172;SDS011;18679;45.190;5.722;2023-09-19T07:24:51;7.80;;;2.63;;
32172;SDS011;18679;45.190;5.722;2023-09-19T07:27:52;10.25;;;3.25;;
32172;SDS011;18679;45.190;5.722;2023-09-19T07:30:55;5.60;;;2.92;;
32172;SDS011;18679;45.190;5.722;2023-09-19T07:33:56;5.72;;;2.60;;
32172;SDS011;18679;45.190;5.722;2023-09-19T07:36:57;4.70;;;2.70;;
32172;SDS011;18679;45.190;5.722;2023-09-19T07:40:04;3.78;;;2.45;;
32172;SDS011;18679;45.190;5.722;2023-09-19T07:43:09;11.88;;;4.68;;
32172;SDS011;18679;45.190;5.722;2023-09-19T07:46:10;6.53;;;2.10;;
32172;SDS011;18679;45.190;5.722;2023-09-19T07:49:11;7.65;;;2.83;;
32172;SDS011;18679;45.190;5.722;2023-09-19T07:52:12;7.03;;;2.78;;
32172;SDS011;18679;45.190;5.722;2023-09-19T07:55:14;4.28;;;2.53;;
32172;SDS011;18679;45.190;5.722;2023-09-19T07:58:17;9.82;;;2.90;;
32172;SDS011;18679;45.190;5.722;2023-09-19T08:01:18;7.93;;;2.60;;
32172;SDS011;18679;45.190;5.722;2023-09-19T08:04:19;8.35;;;2.20;;
32172;SDS011;18679;45.190;5.722;2023-09-19T08:07:20;4.82;;;2.20;;
32172;SDS011;18679;45.190;5.722;2023-09-19T08:10:23;3.60;;;2.33;;
32172;SDS011;18679;45.190;5.722;2023-09-19T08:13:27;2.95;;;1.70;;
32172;SDS011;18679;45.190;5.722;2023-09-19T08:16:28;10.65;;;2.45;;
32172;SDS011;18679;45.190;5.722;2023-09-19T08:19:29;3.25;;;1.80;;
32172;SDS011;18679;45.190;5.722;2023-09-19T08:22:32;2.47;;;2.10;;
32172;SDS011;18679;45.190;5.722;2023-09-19T08:25:33;5.85;;;2.85;;
32172;SDS011;18679;45.190;5.722;2023-09-19T08:28:34;10.65;;;2.80;;
32172;SDS011;18679;45.190;5.722;2023-09-19T08:31:35;3.90;;;2.20;;
32172;SDS011;18679;45.190;5.722;2023-09-19T08:34:36;6.47;;;2.38;;
32172;SDS011;18679;45.190;5.722;2023-09-19T08:37:38;5.53;;;2.33;;
32172;SDS011;18679;45.190;5.722;2023-09-19T08:40:39;3.55;;;2.15;;
32172;SDS011;18679;45.190;5.722;2023-09-19T08:43:42;5.78;;;2.33;;
32172;SDS011;18679;45.190;5.722;2023-09-19T08:46:43;11.73;;;3.08;;
32172;SDS011;18679;45.190;5.722;2023-09-19T08:52:52;19.13;;;3.08;;
32172;SDS011;18679;45.190;5.722;2023-09-19T08:55:55;4.30;;;2.60;;
32172;SDS011;18679;45.190;5.722;2023-09-19T08:58:57;9.57;;;1.98;;
32172;SDS011;18679;45.190;5.722;2023-09-19T09:02:02;12.75;;;2.83;;
32172;SDS011;18679;45.190;5.722;2023-09-19T09:05:04;6.25;;;2.22;;
32172;SDS011;18679;45.190;5.722;2023-09-19T09:08:06;4.70;;;2.90;;
32172;SDS011;18679;45.190;5.722;2023-09-19T09:11:07;3.40;;;2.13;;
32172;SDS011;18679;45.190;5.722;2023-09-19T09:14:08;3.63;;;2.55;;
32172;SDS011;18679;45.190;5.722;2023-09-19T09:17:09;10.98;;;3.13;;
32172;SDS011;18679;45.190;5.722;2023-09-19T09:20:12;11.20;;;4.25;;
32172;SDS011;18679;45.190;5.722;2023-09-19T09:23:13;9.15;;;4.40;;
32172;SDS011;18679;45.190;5.722;2023-09-19T09:26:14;6.80;;;4.07;;
32172;SDS011;18679;45.190;5.722;2023-09-19T09:29:14;9.88;;;4.85;;
32172;SDS011;18679;45.190;5.722;2023-09-19T09:32:34;10.68;;;4.82;;
32172;SDS011;18679;45.190;5.722;2023-09-19T09:38:53;5.40;;;3.50;;
32172;SDS011;18679;45.190;5.722;2023-09-19T09:41:55;10.27;;;4.18;;
32172;SDS011;18679;45.190;5.722;2023-09-19T09:48:33;3.85;;;2.40;;
32172;SDS011;18679;45.190;5.722;2023-09-19T09:51:39;5.47;;;2.70;;
32172;SDS011;18679;45.190;5.722;2023-09-19T09:54:59;6.60;;;2.72;;
32172;SDS011;18679;45.190;5.722;2023-09-19T09:58:18;4.07;;;2.45;;
32172;SDS011;18679;45.190;5.722;2023-09-19T10:01:19;3.50;;;2.20;;
32172;SDS011;18679;45.190;5.722;2023-09-19T10:04:27;20.00;;;2.55;;
32172;SDS011;18679;45.190;5.722;2023-09-19T10:07:36;7.13;;;2.58;;
32172;SDS011;18679;45.190;5.722;2023-09-19T10:10:40;8.60;;;2.75;;
32172;SDS011;18679;45.190;5.722;2023-09-19T10:13:41;7.50;;;2.90;;
32172;SDS011;18679;45.190;5.722;2023-09-19T10:16:47;4.68;;;2.88;;
32172;SDS011;18679;45.190;5.722;2023-09-19T10:19:55;7.80;;;3.15;;
32172;SDS011;18679;45.190;5.722;2023-09-19T10:22:59;10.18;;;4.18;;
32172;SDS011;18679;45.190;5.722;2023-09-19T10:26:03;8.55;;;3.22;;
32172;SDS011;18679;45.190;5.722;2023-09-19T10:29:06;4.20;;;2.50;;
32172;SDS011;18679;45.190;5.722;2023-09-19T10:32:07;4.78;;;2.47;;
32172;SDS011;18679;45.190;5.722;2023-09-19T10:35:10;9.38;;;3.35;;
32172;SDS011;18679;45.190;5.722;2023-09-19T10:38:13;5.43;;;2.50;;
32172;SDS011;18679;45.190;5.722;2023-09-19T10:41:19;7.10;;;2.78;;
32172;SDS011;18679;45.190;5.722;2023-09-19T10:44:23;9.68;;;3.97;;
32172;SDS011;18679;45.190;5.722;2023-09-19T10:47:28;5.38;;;2.78;;
32172;SDS011;18679;45.190;5.722;2023-09-19T10:51:04;5.18;;;2.50;;
32172;SDS011;18679;45.190;5.722;2023-09-19T10:54:13;5.53;;;2.45;;
32172;SDS011;18679;45.190;5.722;2023-09-19T10:57:21;3.00;;;2.00;;
32172;SDS011;18679;45.190;5.722;2023-09-19T11:00:24;3.13;;;2.20;;
32172;SDS011;18679;45.190;5.722;2023-09-19T11:03:27;8.63;;;2.20;;
32172;SDS011;18679;45.190;5.722;2023-09-19T11:06:31;3.53;;;2.22;;
32172;SDS011;18679;45.190;5.722;2023-09-19T11:09:44;3.88;;;2.30;;
32172;SDS011;18679;45.190;5.722;2023-09-19T11:12:54;2.78;;;1.77;;
32172;SDS011;18679;45.190;5.722;2023-09-19T11:19:00;2.20;;;2.00;;
32172;SDS011;18679;45.190;5.722;2023-09-19T11:22:04;6.57;;;2.35;;
32172;SDS011;18679;45.190;5.722;2023-09-19T11:28:50;5.32;;;1.75;;
32172;SDS011;18679;45.190;5.722;2023-09-19T11:36:16;2.40;;;1.75;;
32172;SDS011;18679;45.190;5.722;2023-09-19T11:39:25;1.98;;;1.30;;
32172;SDS011;18679;45.190;5.722;2023-09-19T11:49:05;5.03;;;1.67;;
32172;SDS011;18679;45.190;5.722;2023-09-19T11:52:18;2.45;;;1.30;;
32172;SDS011;18679;45.190;5.722;2023-09-19T11:55:24;3.05;;;1.75;;
32172;SDS011;18679;45.190;5.722;2023-09-19T11:58:31;2.10;;;1.27;;
32172;SDS011;18679;45.190;5.722;2023-09-19T12:01:33;2.50;;;1.05;;
32172;SDS011;18679;45.190;5.722;2023-09-19T12:04:35;1.30;;;1.08;;
32172;SDS011;18679;45.190;5.722;2023-09-19T12:07:43;1.83;;;0.80;;
32172;SDS011;18679;45.190;5.722;2023-09-19T12:10:48;2.28;;;1.25;;
32172;SDS011;18679;45.190;5.722;2023-09-19T12:13:51;2.92;;;1.27;;
32172;SDS011;18679;45.190;5.722;2023-09-19T12:16:55;1.23;;;0.93;;
32172;SDS011;18679;45.190;5.722;2023-09-19T12:19:57;2.78;;;1.20;;
32172;SDS011;18679;45.190;5.722;2023-09-19T12:22:57;1.50;;;0.82;;
32172;SDS011;18679;45.190;5.722;2023-09-19T12:25:58;1.25;;;0.80;;
32172;SDS011;18679;45.190;5.722;2023-09-19T12:29:12;1.55;;;0.82;;
32172;SDS011;18679;45.190;5.722;2023-09-19T12:32:15;1.35;;;0.88;;
32172;SDS011;18679;45.190;5.722;2023-09-19T12:35:30;0.85;;;0.70;;
32172;SDS011;18679;45.190;5.722;2023-09-19T12:38:35;1.80;;;0.90;;
32172;SDS011;18679;45.190;5.722;2023-09-19T12:41:37;2.78;;;0.73;;
32172;SDS011;18679;45.190;5.722;2023-09-19T12:44:43;0.80;;;0.57;;
32172;SDS011;18679;45.190;5.722;2023-09-19T12:51:20;3.40;;;0.50;;
32172;SDS011;18679;45.190;5.722;2023-09-19T12:54:24;2.78;;;0.50;;
32172;SDS011;18679;45.190;5.722;2023-09-19T12:57:25;2.15;;;0.50;;
32172;SDS011;18679;45.190;5.722;2023-09-19T13:00:42;2.00;;;0.75;;
32172;SDS011;18679;45.190;5.722;2023-09-19T13:03:44;0.60;;;0.60;;
32172;SDS011;18679;45.190;5.722;2023-09-19T13:06:48;0.65;;;0.50;;
32172;SDS011;18679;45.190;5.722;2023-09-19T13:10:04;1.17;;;0.75;;
32172;SDS011;18679;45.190;5.722;2023-09-19T13:13:23;4.15;;;0.63;;
32172;SDS011;18679;45.190;5.722;2023-09-19T13:16:28;2.13;;;0.60;;
32172;SDS011;18679;45.190;5.722;2023-09-19T13:19:42;0.80;;;0.52;;
32172;SDS011;18679;45.190;5.722;2023-09-19T13:22:55;1.00;;;0.40;;
32172;SDS011;18679;45.190;5.722;2023-09-19T13:26:00;1.52;;;0.60;;
32172;SDS011;18679;45.190;5.722;2023-09-19T13:29:01;5.82;;;0.60;;
32172;SDS011;18679;45.190;5.722;2023-09-19T13:32:01;2.13;;;0.40;;
32172;SDS011;18679;45.190;5.722;2023-09-19T13:35:02;0.47;;;0.47;;
32172;SDS011;18679;45.190;5.722;2023-09-19T13:38:05;3.22;;;0.60;;
32172;SDS011;18679;45.190;5.722;2023-09-19T13:41:10;0.80;;;0.68;;
32172;SDS011;18679;45.190;5.722;2023-09-19T13:44:11;0.43;;;0.38;;
32172;SDS011;18679;45.190;5.722;2023-09-19T13:47:11;0.98;;;0.52;;
32172;SDS011;18679;45.190;5.722;2023-09-19T13:50:14;4.97;;;0.75;;
32172;SDS011;18679;45.190;5.722;2023-09-19T13:53:15;2.60;;;0.90;;
32172;SDS011;18679;45.190;5.722;2023-09-19T13:56:17;7.85;;;1.25;;
32172;SDS011;18679;45.190;5.722;2023-09-19T13:59:17;1.00;;;0.70;;
32172;SDS011;18679;45.190;5.722;2023-09-19T14:02:18;0.70;;;0.70;;
32172;SDS011;18679;45.190;5.722;2023-09-19T14:05:19;1.05;;;0.70;;
32172;SDS011;18679;45.190;5.722;2023-09-19T14:08:20;2.08;;;0.40;;
32172;SDS011;18679;45.190;5.722;2023-09-19T14:11:23;1.17;;;0.80;;
32172;SDS011;18679;45.190;5.722;2023-09-19T14:14:24;0.75;;;0.75;;
32172;SDS011;18679;45.190;5.722;2023-09-19T14:17:25;1.95;;;0.95;;
32172;SDS011;18679;45.190;5.722;2023-09-19T14:20:27;1.05;;;0.75;;
32172;SDS011;18679;45.190;5.722;2023-09-19T14:23:28;0.70;;;0.70;;
32172;SDS011;18679;45.190;5.722;2023-09-19T14:47:03;3.80;;;0.68;;
32172;SDS011;18679;45.190;5.722;2023-09-19T14:50:27;0.98;;;0.70;;
32172;SDS011;18679;45.190;5.722;2023-09-19T14:53:33;1.30;;;0.70;;
32172;SDS011;18679;45.190;5.722;2023-09-19T14:56:34;2.42;;;1.00;;
32172;SDS011;18679;45.190;5.722;2023-09-19T14:59:35;2.55;;;0.75;;
32172;SDS011;18679;45.190;5.722;2023-09-19T15:02:38;4.22;;;0.68;;
32172;SDS011;18679;45.190;5.722;2023-09-19T15:05:40;2.20;;;0.93;;
32172;SDS011;18679;45.190;5.722;2023-09-19T15:08:41;2.60;;;1.00;;
32172;SDS011;18679;45.190;5.722;2023-09-19T15:11:47;2.95;;;0.90;;
32172;SDS011;18679;45.190;5.722;2023-09-19T15:14:48;0.80;;;0.60;;
32172;SDS011;18679;45.190;5.722;2023-09-19T15:17:52;1.58;;;1.02;;
32172;SDS011;18679;45.190;5.722;2023-09-19T15:20:53;2.85;;;0.70;;
32172;SDS011;18679;45.190;5.722;2023-09-19T15:23:54;0.70;;;0.60;;
32172;SDS011;18679;45.190;5.722;2023-09-19T15:26:55;2.55;;;0.90;;
32172;SDS011;18679;45.190;5.722;2023-09-19T15:29:57;4.43;;;0.80;;
32172;SDS011;18679;45.190;5.722;2023-09-19T15:33:00;1.45;;;0.93;;
32172;SDS011;18679;45.190;5.722;2023-09-19T15:39:25;2.90;;;0.82;;
32172;SDS011;18679;45.190;5.722;2023-09-19T15:47:47;2.28;;;0.98;;
32172;SDS011;18679;45.190;5.722;2023-09-19T15:54:55;2.80;;;1.17;;
32172;SDS011;18679;45.190;5.722;2023-09-19T15:58:04;3.15;;;0.95;;
32172;SDS011;18679;45.190;5.722;2023-09-19T16:01:25;2.47;;;0.75;;
32172;SDS011;18679;45.190;5.722;2023-09-19T16:04:34;7.57;;;0.98;;
32172;SDS011;18679;45.190;5.722;2023-09-19T16:08:03;2.15;;;0.90;;
32172;SDS011;18679;45.190;5.722;2023-09-19T16:11:21;2.28;;;0.90;;
32172;SDS011;18679;45.190;5.722;2023-09-19T16:15:09;5.13;;;1.00;;
32172;SDS011;18679;45.190;5.722;2023-09-19T16:18:22;2.28;;;0.90;;
32172;SDS011;18679;45.190;5.722;2023-09-19T16:21:55;1.35;;;0.90;;
32172;SDS011;18679;45.190;5.722;2023-09-19T16:25:00;1.20;;;0.80;;
32172;SDS011;18679;45.190;5.722;2023-09-19T16:28:04;1.50;;;1.08;;
32172;SDS011;18679;45.190;5.722;2023-09-19T16:31:08;1.40;;;0.80;;
32172;SDS011;18679;45.190;5.722;2023-09-19T16:34:18;2.10;;;1.00;;
32172;SDS011;18679;45.190;5.722;2023-09-19T16:37:23;3.00;;;1.10;;
32172;SDS011;18679;45.190;5.722;2023-09-19T16:40:25;4.88;;;1.00;;
32172;SDS011;18679;45.190;5.722;2023-09-19T16:47:56;1.63;;;0.85;;
32172;SDS011;18679;45.190;5.722;2023-09-19T16:51:01;8.70;;;1.17;;
32172;SDS011;18679;45.190;5.722;2023-09-19T16:54:04;8.07;;;1.20;;
32172;SDS011;18679;45.190;5.722;2023-09-19T16:57:07;2.95;;;0.95;;
32172;SDS011;18679;45.190;5.722;2023-09-19T17:00:15;4.25;;;1.13;;
32172;SDS011;18679;45.190;5.722;2023-09-19T17:03:20;2.15;;;0.80;;
32172;SDS011;18679;45.190;5.722;2023-09-19T17:06:23;2.05;;;0.88;;
32172;SDS011;18679;45.190;5.722;2023-09-19T17:09:25;1.88;;;0.90;;
32172;SDS011;18679;45.190;5.722;2023-09-19T17:16:12;15.05;;;1.30;;
32172;SDS011;18679;45.190;5.722;2023-09-19T17:22:25;2.38;;;0.90;;
32172;SDS011;18679;45.190;5.722;2023-09-19T17:25:26;6.50;;;1.20;;
32172;SDS011;18679;45.190;5.722;2023-09-19T17:28:33;3.53;;;1.17;;
32172;SDS011;18679;45.190;5.722;2023-09-19T17:31:37;4.05;;;1.05;;
32172;SDS011;18679;45.190;5.722;2023-09-19T17:34:39;2.72;;;0.93;;
32172;SDS011;18679;45.190;5.722;2023-09-19T17:37:42;2.22;;;1.00;;
32172;SDS011;18679;45.190;5.722;2023-09-19T17:40:49;3.08;;;1.10;;
32172;SDS011;18679;45.190;5.722;2023-09-19T17:43:57;2.33;;;1.38;;
32172;SDS011;18679;45.190;5.722;2023-09-19T17:46:59;2.58;;;0.80;;
32172;SDS011;18679;45.190;5.722;2023-09-19T17:50:09;1.77;;;1.25;;
32172;SDS011;18679;45.190;5.722;2023-09-19T17:53:21;7.93;;;1.58;;
32172;SDS011;18679;45.190;5.722;2023-09-19T17:56:28;3.97;;;1.40;;
32172;SDS011;18679;45.190;5.722;2023-09-19T17:59:37;2.45;;;1.23;;
32172;SDS011;18679;45.190;5.722;2023-09-19T18:02:46;4.90;;;1.08;;
32172;SDS011;18679;45.190;5.722;2023-09-19T18:05:50;2.22;;;1.10;;
32172;SDS011;18679;45.190;5.722;2023-09-19T18:08:53;2.75;;;1.40;;
32172;SDS011;18679;45.190;5.722;2023-09-19T18:12:04;3.10;;;1.25;;
32172;SDS011;18679;45.190;5.722;2023-09-19T18:15:11;3.28;;;1.38;;
32172;SDS011;18679;45.190;5.722;2023-09-19T18:18:42;5.55;;;1.33;;
32172;SDS011;18679;45.190;5.722;2023-09-19T18:22:14;1.70;;;1.00;;
32172;SDS011;18679;45.190;5.722;2023-09-19T18:25:17;1.17;;;0.80;;
32172;SDS011;18679;45.190;5.722;2023-09-19T18:28:28;2.05;;;0.93;;
32172;SDS011;18679;45.190;5.722;2023-09-19T18:35:38;3.35;;;1.40;;
32172;SDS011;18679;45.190;5.722;2023-09-19T18:38:43;1.92;;;1.10;;
32172;SDS011;18679;45.190;5.722;2023-09-19T18:42:12;3.60;;;0.93;;
32172;SDS011;18679;45.190;5.722;2023-09-19T18:52:04;1.63;;;1.10;;
32172;SDS011;18679;45.190;5.722;2023-09-19T18:55:17;4.47;;;1.48;;
32172;SDS011;18679;45.190;5.722;2023-09-19T18:58:22;1.17;;;1.00;;
32172;SDS011;18679;45.190;5.722;2023-09-19T19:01:26;2.85;;;1.50;;
32172;SDS011;18679;45.190;5.722;2023-09-19T19:04:38;5.47;;;1.73;;
32172;SDS011;18679;45.190;5.722;2023-09-19T19:08:15;5.07;;;1.90;;
32172;SDS011;18679;45.190;5.722;2023-09-19T19:11:14;3.80;;;1.48;;
32172;SDS011;18679;45.190;5.722;2023-09-19T19:14:24;5.07;;;2.15;;
32172;SDS011;18679;45.190;5.722;2023-09-19T19:17:32;4.35;;;1.38;;
32172;SDS011;18679;45.190;5.722;2023-09-19T19:21:15;1.63;;;1.15;;
32172;SDS011;18679;45.190;5.722;2023-09-19T19:24:18;3.22;;;1.30;;
32172;SDS011;18679;45.190;5.722;2023-09-19T19:30:47;2.85;;;1.40;;
32172;SDS011;18679;45.190;5.722;2023-09-19T19:33:49;2.38;;;1.35;;
32172;SDS011;18679;45.190;5.722;2023-09-19T19:40:19;9.52;;;1.90;;
32172;SDS011;18679;45.190;5.722;2023-09-19T19:43:19;5.35;;;1.23;;
32172;SDS011;18679;45.190;5.722;2023-09-19T19:54:01;3.22;;;1.50;;
32172;SDS011;18679;45.190;5.722;2023-09-19T20:07:11;3.70;;;1.70;;
32172;SDS011;18679;45.190;5.722;2023-09-19T20:10:12;2.97;;;1.48;;
32172;SDS011;18679;45.190;5.722;2023-09-19T20:13:15;3.28;;;1.33;;
32172;SDS011;18679;45.190;5.722;2023-09-19T20:16:17;10.80;;;1.80;;
32172;SDS011;18679;45.190;5.722;2023-09-19T20:19:18;1.95;;;0.90;;
32172;SDS011;18679;45.190;5.722;2023-09-19T20:22:20;9.60;;;1.30;;
32172;SDS011;18679;45.190;5.722;2023-09-19T20:25:21;5.18;;;1.60;;
32172;SDS011;18679;45.190;5.722;2023-09-19T20:28:23;5.90;;;1.50;;
32172;SDS011;18679;45.190;5.722;2023-09-19T20:31:24;2.80;;;1.40;;